»·PEaware :: N508DB KOTH-KPDX

N508DB :: KOTH-KPDX

FLIGHT INFORMATION

Flight Status: Arrived
Operator: Privately registered:
United States
More flights under this callsign
Pilot: Chuck O. (4337)
Aircraft: Unknown
(LEG2)
More flights by this aircraft type
Origin: KOTH North Bend Mun
United States
Destination: KPDX Portland Intl
United States
More flights between these airports :: More routes between these airports
Route: +OTH6 RARES V287 UBG
File this flight plan on PilotEdge
Remarks:
Altitude:
(Current/Filed)
11,000ft
Speed:
(Current/Filed)
180kts
Departed: 13-Sep-18 01:24 PM
Arrived: 13-Sep-18 02:22 PM
Distance/Time
Traveled:
148nm/0:58
Distance/Time
To Go:
Arrived

Flight Plot

Page will automatically refresh every two minutes.

Flight plan parsing failed; only flown route is shown


Map Options




Map Legend


Flown Route
Filed Route
Departure Airport
Arrival Airport
Navaid (VOR, NDB)
Fix

Horizontal Profiles

Position Reports

Time Latitude Longitude Heading Altitude Ground
Speed
13-Sep-18 13:03 43.415400 -124.245683 236 11ft 0kts
13-Sep-18 13:04 43.415398 -124.245688 236 11ft 0kts
13-Sep-18 13:05 43.415395 -124.245693 236 11ft 0kts
13-Sep-18 13:06 43.415393 -124.245698 236 11ft 0kts
13-Sep-18 13:07 43.415390 -124.245703 236 11ft 0kts
13-Sep-18 13:08 43.415388 -124.245708 236 11ft 0kts
13-Sep-18 13:09 43.415385 -124.245713 235 11ft 0kts
13-Sep-18 13:10 43.415383 -124.245718 235 11ft 0kts
13-Sep-18 13:11 43.415380 -124.245724 235 11ft 0kts
13-Sep-18 13:12 43.415377 -124.245729 235 11ft 0kts
13-Sep-18 13:13 43.415375 -124.245734 235 11ft 0kts
13-Sep-18 13:14 43.415372 -124.245739 235 11ft 0kts
13-Sep-18 13:15 43.415370 -124.245744 235 11ft 0kts
13-Sep-18 13:16 43.415367 -124.245750 234 11ft 0kts
13-Sep-18 13:17 43.416202 -124.246254 323 11ft 16kts
13-Sep-18 13:18 43.416655 -124.246376 41 11ft 0kts
13-Sep-18 13:19 43.417488 -124.245853 335 11ft 15kts
13-Sep-18 13:20 43.419239 -124.246680 75 11ft 0kts
13-Sep-18 13:21 43.419788 -124.243213 60 11ft 29kts
13-Sep-18 13:22 43.422492 -124.240462 324 11ft 0kts
13-Sep-18 13:23 43.422494 -124.240464 324 11ft 0kts
13-Sep-18 13:24 43.422495 -124.240466 324 11ft 0kts
13-Sep-18 13:25 43.422643 -124.241107 221 11ft 5kts
13-Sep-18 13:26 43.417433 -124.253622 237 163ft 97kts
13-Sep-18 13:27 43.403163 -124.291832 225 1586ft 128kts
13-Sep-18 13:28 43.385821 -124.330051 313 2652ft 171kts
13-Sep-18 13:29 43.417506 -124.376494 303 3653ft 177kts
13-Sep-18 13:30 43.442403 -124.351077 114 4939ft 156kts
13-Sep-18 13:31 43.431657 -124.294321 102 6186ft 155kts
13-Sep-18 13:32 43.423937 -124.234262 101 7341ft 164kts
13-Sep-18 13:33 43.421473 -124.171527 59 8343ft 169kts
13-Sep-18 13:34 43.461881 -124.141503 21 9254ft 172kts
13-Sep-18 13:35 43.506626 -124.114603 20 10064ft 178kts
13-Sep-18 13:36 43.552514 -124.087255 20 10840ft 181kts
13-Sep-18 13:37 43.602349 -124.057543 20 11003ft 209kts
13-Sep-18 13:38 43.657856 -124.024353 20 10997ft 224kts
13-Sep-18 13:39 43.716034 -123.989524 21 10994ft 229kts
13-Sep-18 13:40 43.774823 -123.954262 21 10992ft 231kts
13-Sep-18 13:41 43.833944 -123.918713 20 11015ft 231kts
13-Sep-18 13:42 43.892972 -123.883182 20 11019ft 232kts
13-Sep-18 13:43 43.952307 -123.847377 20 11019ft 234kts
13-Sep-18 13:44 44.012424 -123.811007 21 11020ft 236kts
13-Sep-18 13:45 44.072611 -123.774507 21 11019ft 237kts
13-Sep-18 13:46 44.133120 -123.737736 21 11018ft 237kts
13-Sep-18 13:47 44.193671 -123.700857 21 11018ft 237kts
13-Sep-18 13:48 44.253878 -123.664103 21 11017ft 237kts
13-Sep-18 13:49 44.314291 -123.627141 21 11017ft 237kts
13-Sep-18 13:50 44.374793 -123.590046 21 11020ft 237kts
13-Sep-18 13:51 44.435121 -123.552994 21 11017ft 237kts
13-Sep-18 13:52 44.495444 -123.515827 21 11016ft 236kts
13-Sep-18 13:53 44.555553 -123.478722 21 11014ft 236kts
13-Sep-18 13:54 44.615942 -123.441361 21 10998ft 236kts
13-Sep-18 13:55 44.676090 -123.404061 22 11010ft 235kts
13-Sep-18 13:56 44.736070 -123.366785 22 11013ft 236kts
13-Sep-18 13:57 44.796140 -123.329369 22 11010ft 236kts
13-Sep-18 13:58 44.856311 -123.291823 22 11006ft 236kts
13-Sep-18 13:59 44.916366 -123.254231 22 10999ft 236kts
13-Sep-18 14:00 44.976410 -123.216571 22 10998ft 235kts
13-Sep-18 14:01 45.036399 -123.178864 22 10998ft 235kts
13-Sep-18 14:02 45.096173 -123.141202 22 10997ft 235kts
13-Sep-18 14:03 45.156023 -123.103404 22 10998ft 235kts
13-Sep-18 14:04 45.215769 -123.065569 22 10996ft 235kts
13-Sep-18 14:05 45.273580 -123.028855 22 10979ft 231kts
13-Sep-18 14:06 45.333337 -122.990838 22 10350ft 231kts
13-Sep-18 14:07 45.376150 -122.932687 85 9519ft 231kts
13-Sep-18 14:08 45.376409 -122.842047 91 8639ft 235kts
13-Sep-18 14:09 45.375544 -122.748245 92 7742ft 239kts
13-Sep-18 14:10 45.374731 -122.655976 92 6838ft 208kts
13-Sep-18 14:11 45.374472 -122.585814 92 5989ft 164kts
13-Sep-18 14:12 45.374340 -122.520893 92 4891ft 163kts
13-Sep-18 14:13 45.376706 -122.457417 72 3997ft 154kts
13-Sep-18 14:14 45.391023 -122.400468 70 3233ft 150kts
13-Sep-18 14:15 45.404799 -122.345844 70 2990ft 138kts
13-Sep-18 14:16 45.419381 -122.292713 46 2983ft 151kts
13-Sep-18 14:17 45.458116 -122.303404 335 2997ft 150kts
13-Sep-18 14:18 45.493377 -122.331759 299 2995ft 144kts
13-Sep-18 14:19 45.506787 -122.369145 295 2885ft 117kts
13-Sep-18 14:20 45.523001 -122.411393 296 2601ft 132kts
13-Sep-18 14:21 45.544008 -122.465138 295 1659ft 129kts
13-Sep-18 14:22 45.557369 -122.499381 293 1100ft 109kts
13-Sep-18 14:23 45.571673 -122.536011 293 576ft 108kts
13-Sep-18 14:24 45.586236 -122.573919 297 21ft 18kts
13-Sep-18 14:25 45.586524 -122.576053 221 21ft 0kts
13-Sep-18 14:26 45.586535 -122.577419 290 21ft 14kts
13-Sep-18 14:27 45.585083 -122.577329 156 21ft 0kts
13-Sep-18 14:28 45.585285 -122.577975 271 21ft 7kts
13-Sep-18 14:29 45.585078 -122.578423 208 21ft 0kts
13-Sep-18 14:30 45.585078 -122.578423 208 21ft 0kts
13-Sep-18 14:31 45.585078 -122.578423 208 21ft 0kts

Navigation Log

Ident Type
Flight plan parsing failed, navigation log unavailable